sensor_id;sensor_type;location;lat;lon;timestamp;pressure;altitude;pressure_sealevel;temperature;humidity
53758;BME280;39674;59.860;30.672;2023-03-15T00:02:28;98729.28;;;3.56;100.00
53758;BME280;39674;59.860;30.672;2023-03-15T00:04:58;98727.78;;;3.52;100.00
53758;BME280;39674;59.860;30.672;2023-03-15T00:11:39;98733.66;;;3.56;100.00
53758;BME280;39674;59.860;30.672;2023-03-15T00:14:28;98738.63;;;3.60;100.00
53758;BME280;39674;59.860;30.672;2023-03-15T00:53:35;98723.16;;;3.57;100.00
53758;BME280;39674;59.860;30.672;2023-03-15T00:56:36;98730.88;;;3.59;100.00
53758;BME280;39674;59.860;30.672;2023-03-15T00:59:55;98712.69;;;3.41;100.00
53758;BME280;39674;59.860;30.672;2023-03-15T01:06:14;98744.88;;;3.58;100.00
53758;BME280;39674;59.860;30.672;2023-03-15T01:10:21;98738.81;;;3.57;100.00
53758;BME280;39674;59.860;30.672;2023-03-15T01:20:48;98733.59;;;3.57;100.00
53758;BME280;39674;59.860;30.672;2023-03-15T01:24:22;98735.44;;;3.55;100.00
53758;BME280;39674;59.860;30.672;2023-03-15T01:27:18;98739.06;;;3.52;100.00
53758;BME280;39674;59.860;30.672;2023-03-15T01:30:37;98745.53;;;3.61;100.00
53758;BME280;39674;59.860;30.672;2023-03-15T01:33:48;98744.72;;;3.61;100.00
53758;BME280;39674;59.860;30.672;2023-03-15T01:40:02;98750.59;;;3.64;100.00
53758;BME280;39674;59.860;30.672;2023-03-15T01:43:23;98754.81;;;3.67;100.00
53758;BME280;39674;59.860;30.672;2023-03-15T01:46:32;98756.91;;;3.60;100.00
53758;BME280;39674;59.860;30.672;2023-03-15T01:49:22;98755.84;;;3.64;100.00
53758;BME280;39674;59.860;30.672;2023-03-15T01:53:17;98767.69;;;3.70;100.00
53758;BME280;39674;59.860;30.672;2023-03-15T01:56:05;98772.00;;;3.71;100.00
53758;BME280;39674;59.860;30.672;2023-03-15T01:58:49;98773.00;;;3.68;100.00
53758;BME280;39674;59.860;30.672;2023-03-15T02:01:24;98771.41;;;3.66;100.00
53758;BME280;39674;59.860;30.672;2023-03-15T02:04:02;98768.78;;;3.66;100.00
53758;BME280;39674;59.860;30.672;2023-03-15T02:10:32;98776.38;;;3.71;100.00
53758;BME280;39674;59.860;30.672;2023-03-15T02:13:09;98780.06;;;3.66;100.00
53758;BME280;39674;59.860;30.672;2023-03-15T02:16:02;98782.09;;;3.61;100.00
53758;BME280;39674;59.860;30.672;2023-03-15T02:18:55;98778.91;;;3.72;100.00
53758;BME280;39674;59.860;30.672;2023-03-15T02:21:32;98767.78;;;3.68;100.00
53758;BME280;39674;59.860;30.672;2023-03-15T02:24:32;98777.88;;;3.75;100.00
53758;BME280;39674;59.860;30.672;2023-03-15T02:27:16;98778.66;;;3.77;100.00
53758;BME280;39674;59.860;30.672;2023-03-15T02:29:50;98784.63;;;3.79;100.00
53758;BME280;39674;59.860;30.672;2023-03-15T02:32:44;98783.13;;;3.75;100.00
53758;BME280;39674;59.860;30.672;2023-03-15T02:35:21;98775.19;;;3.76;100.00
53758;BME280;39674;59.860;30.672;2023-03-15T02:38:05;98777.66;;;3.79;100.00
53758;BME280;39674;59.860;30.672;2023-03-15T02:40:46;98781.09;;;3.80;100.00
53758;BME280;39674;59.860;30.672;2023-03-15T02:44:40;98790.72;;;3.79;100.00
53758;BME280;39674;59.860;30.672;2023-03-15T02:46:53;98789.84;;;3.79;100.00
53758;BME280;39674;59.860;30.672;2023-03-15T02:49:29;98787.22;;;3.79;100.00
53758;BME280;39674;59.860;30.672;2023-03-15T02:52:12;98797.69;;;3.79;100.00
53758;BME280;39674;59.860;30.672;2023-03-15T02:55:23;98803.84;;;3.78;100.00
53758;BME280;39674;59.860;30.672;2023-03-15T02:58:11;98801.81;;;3.83;100.00
53758;BME280;39674;59.860;30.672;2023-03-15T03:00:43;98810.72;;;3.79;100.00
53758;BME280;39674;59.860;30.672;2023-03-15T03:03:16;98807.38;;;3.77;100.00
53758;BME280;39674;59.860;30.672;2023-03-15T03:05:56;98810.59;;;3.82;100.00
53758;BME280;39674;59.860;30.672;2023-03-15T03:08:35;98821.19;;;3.79;100.00
53758;BME280;39674;59.860;30.672;2023-03-15T03:11:28;98821.72;;;3.85;100.00
53758;BME280;39674;59.860;30.672;2023-03-15T03:13:58;98820.84;;;3.85;100.00
53758;BME280;39674;59.860;30.672;2023-03-15T03:16:27;98829.63;;;3.84;100.00
53758;BME280;39674;59.860;30.672;2023-03-15T03:19:01;98836.69;;;3.82;100.00
53758;BME280;39674;59.860;30.672;2023-03-15T03:21:40;98833.31;;;3.80;100.00
53758;BME280;39674;59.860;30.672;2023-03-15T03:24:11;98833.31;;;3.80;100.00
53758;BME280;39674;59.860;30.672;2023-03-15T03:27:08;98842.59;;;3.85;100.00
53758;BME280;39674;59.860;30.672;2023-03-15T03:29:55;98847.06;;;3.83;100.00
53758;BME280;39674;59.860;30.672;2023-03-15T03:32:23;98849.06;;;3.78;100.00
53758;BME280;39674;59.860;30.672;2023-03-15T03:35:07;98847.16;;;3.82;100.00
53758;BME280;39674;59.860;30.672;2023-03-15T03:37:37;98845.44;;;3.81;100.00
53758;BME280;39674;59.860;30.672;2023-03-15T03:40:19;98847.28;;;3.79;100.00
53758;BME280;39674;59.860;30.672;2023-03-15T03:43:11;98841.91;;;3.82;100.00
53758;BME280;39674;59.860;30.672;2023-03-15T03:45:46;98859.28;;;3.83;100.00
53758;BME280;39674;59.860;30.672;2023-03-15T03:48:19;98846.13;;;3.84;100.00
53758;BME280;39674;59.860;30.672;2023-03-15T03:50:55;98857.59;;;3.82;100.00
53758;BME280;39674;59.860;30.672;2023-03-15T03:53:24;98862.97;;;3.79;100.00
53758;BME280;39674;59.860;30.672;2023-03-15T03:55:58;98858.41;;;3.82;100.00
53758;BME280;39674;59.860;30.672;2023-03-15T03:58:31;98868.72;;;3.85;100.00
53758;BME280;39674;59.860;30.672;2023-03-15T04:01:09;98864.31;;;3.86;100.00
53758;BME280;39674;59.860;30.672;2023-03-15T04:03:40;98870.91;;;3.93;100.00
53758;BME280;39674;59.860;30.672;2023-03-15T04:06:27;98866.53;;;3.94;100.00
53758;BME280;39674;59.860;30.672;2023-03-15T04:08:58;98872.78;;;3.91;100.00
53758;BME280;39674;59.860;30.672;2023-03-15T04:11:34;98874.44;;;3.92;100.00
53758;BME280;39674;59.860;30.672;2023-03-15T04:14:13;98876.47;;;3.87;100.00
53758;BME280;39674;59.860;30.672;2023-03-15T04:17:00;98870.56;;;3.83;100.00
53758;BME280;39674;59.860;30.672;2023-03-15T04:19:42;98878.00;;;3.91;100.00
53758;BME280;39674;59.860;30.672;2023-03-15T04:25:41;98871.81;;;3.92;100.00
53758;BME280;39674;59.860;30.672;2023-03-15T04:28:58;98876.66;;;3.84;100.00
53758;BME280;39674;59.860;30.672;2023-03-15T04:32:05;98896.28;;;3.91;100.00
53758;BME280;39674;59.860;30.672;2023-03-15T04:35:25;98888.47;;;3.91;100.00
53758;BME280;39674;59.860;30.672;2023-03-15T04:38:30;98900.88;;;3.86;100.00
53758;BME280;39674;59.860;30.672;2023-03-15T04:44:52;98919.63;;;3.94;100.00
53758;BME280;39674;59.860;30.672;2023-03-15T04:48:07;98908.16;;;3.97;100.00
53758;BME280;39674;59.860;30.672;2023-03-15T04:51:10;98911.69;;;3.96;100.00
53758;BME280;39674;59.860;30.672;2023-03-15T04:53:51;98921.47;;;3.92;100.00
53758;BME280;39674;59.860;30.672;2023-03-15T04:56:51;98911.78;;;3.94;100.00
53758;BME280;39674;59.860;30.672;2023-03-15T04:59:42;98916.09;;;3.95;100.00
53758;BME280;39674;59.860;30.672;2023-03-15T05:02:25;98920.44;;;3.95;100.00
53758;BME280;39674;59.860;30.672;2023-03-15T05:05:17;98919.78;;;3.91;100.00
53758;BME280;39674;59.860;30.672;2023-03-15T05:08:09;98931.75;;;3.95;100.00
53758;BME280;39674;59.860;30.672;2023-03-15T05:11:00;98929.75;;;4.00;100.00
53758;BME280;39674;59.860;30.672;2023-03-15T05:13:50;98925.63;;;3.96;100.00
53758;BME280;39674;59.860;30.672;2023-03-15T05:16:42;98931.44;;;4.01;100.00
53758;BME280;39674;59.860;30.672;2023-03-15T05:19:52;98928.97;;;3.98;100.00
53758;BME280;39674;59.860;30.672;2023-03-15T05:22:39;98933.28;;;3.99;100.00
53758;BME280;39674;59.860;30.672;2023-03-15T05:25:38;98935.97;;;3.98;100.00
53758;BME280;39674;59.860;30.672;2023-03-15T05:28:28;98943.13;;;3.94;100.00
53758;BME280;39674;59.860;30.672;2023-03-15T05:31:07;98944.91;;;3.94;100.00
53758;BME280;39674;59.860;30.672;2023-03-15T05:34:01;98952.13;;;3.89;100.00
53758;BME280;39674;59.860;30.672;2023-03-15T05:37:04;98947.91;;;3.86;100.00
53758;BME280;39674;59.860;30.672;2023-03-15T05:39:47;98951.28;;;3.88;100.00
53758;BME280;39674;59.860;30.672;2023-03-15T05:42:36;98952.97;;;3.89;100.00
53758;BME280;39674;59.860;30.672;2023-03-15T05:45:31;98956.66;;;3.85;100.00
53758;BME280;39674;59.860;30.672;2023-03-15T05:48:20;98961.59;;;3.91;100.00
53758;BME280;39674;59.860;30.672;2023-03-15T05:51:01;98961.59;;;3.91;100.00
53758;BME280;39674;59.860;30.672;2023-03-15T05:53:57;98960.03;;;3.87;100.00
53758;BME280;39674;59.860;30.672;2023-03-15T05:56:47;98964.19;;;3.91;100.00
53758;BME280;39674;59.860;30.672;2023-03-15T05:59:46;98970.16;;;3.93;100.00
53758;BME280;39674;59.860;30.672;2023-03-15T06:02:45;98971.34;;;3.88;100.00
53758;BME280;39674;59.860;30.672;2023-03-15T06:05:39;98966.81;;;3.91;100.00
53758;BME280;39674;59.860;30.672;2023-03-15T06:08:18;98986.63;;;3.95;100.00
53758;BME280;39674;59.860;30.672;2023-03-15T06:10:55;98980.63;;;3.93;100.00
53758;BME280;39674;59.860;30.672;2023-03-15T06:13:24;98992.75;;;3.94;100.00
53758;BME280;39674;59.860;30.672;2023-03-15T06:16:18;98989.22;;;3.95;100.00
53758;BME280;39674;59.860;30.672;2023-03-15T06:18:52;98974.56;;;3.93;100.00
53758;BME280;39674;59.860;30.672;2023-03-15T06:21:25;98977.63;;;4.01;100.00
53758;BME280;39674;59.860;30.672;2023-03-15T06:24:12;98990.97;;;3.95;100.00
53758;BME280;39674;59.860;30.672;2023-03-15T06:26:43;98996.97;;;3.97;100.00
53758;BME280;39674;59.860;30.672;2023-03-15T06:29:12;99001.97;;;4.01;100.00
53758;BME280;39674;59.860;30.672;2023-03-15T06:31:43;99001.06;;;4.03;100.00
53758;BME280;39674;59.860;30.672;2023-03-15T06:34:16;99001.75;;;4.06;100.00
53758;BME280;39674;59.860;30.672;2023-03-15T06:36:46;98998.25;;;4.06;100.00
53758;BME280;39674;59.860;30.672;2023-03-15T06:39:15;98995.50;;;4.09;100.00
53758;BME280;39674;59.860;30.672;2023-03-15T06:41:46;99006.09;;;4.06;100.00
53758;BME280;39674;59.860;30.672;2023-03-15T06:44:19;99002.56;;;4.07;100.00
53758;BME280;39674;59.860;30.672;2023-03-15T06:46:59;98999.03;;;4.08;100.00
53758;BME280;39674;59.860;30.672;2023-03-15T06:49:27;98998.88;;;4.11;100.00
53758;BME280;39674;59.860;30.672;2023-03-15T06:51:56;99004.13;;;4.11;100.00
53758;BME280;39674;59.860;30.672;2023-03-15T06:54:27;99011.19;;;4.09;100.00
53758;BME280;39674;59.860;30.672;2023-03-15T06:59:45;99018.84;;;4.12;100.00
53758;BME280;39674;59.860;30.672;2023-03-15T07:02:14;99021.31;;;4.15;100.00
53758;BME280;39674;59.860;30.672;2023-03-15T07:04:51;99018.25;;;4.07;100.00
53758;BME280;39674;59.860;30.672;2023-03-15T07:07:23;99010.84;;;4.15;100.00
53758;BME280;39674;59.860;30.672;2023-03-15T07:10:02;99019.28;;;4.20;100.00
53758;BME280;39674;59.860;30.672;2023-03-15T07:12:35;99014.06;;;4.20;100.00
53758;BME280;39674;59.860;30.672;2023-03-15T07:15:08;99016.34;;;4.26;100.00
53758;BME280;39674;59.860;30.672;2023-03-15T07:17:45;99010.22;;;4.27;100.00
53758;BME280;39674;59.860;30.672;2023-03-15T07:20:17;99018.81;;;4.29;100.00
53758;BME280;39674;59.860;30.672;2023-03-15T07:22:51;99025.06;;;4.27;100.00
53758;BME280;39674;59.860;30.672;2023-03-15T07:25:32;99034.50;;;4.29;100.00
53758;BME280;39674;59.860;30.672;2023-03-15T07:28:11;99049.28;;;4.30;100.00
53758;BME280;39674;59.860;30.672;2023-03-15T07:30:54;99050.78;;;4.34;100.00
53758;BME280;39674;59.860;30.672;2023-03-15T07:33:28;99056.09;;;4.33;100.00
53758;BME280;39674;59.860;30.672;2023-03-15T07:35:57;99063.84;;;4.34;100.00
53758;BME280;39674;59.860;30.672;2023-03-15T07:38:28;99067.38;;;4.33;100.00
53758;BME280;39674;59.860;30.672;2023-03-15T07:40:57;99069.22;;;4.31;100.00
53758;BME280;39674;59.860;30.672;2023-03-15T07:43:29;99077.06;;;4.31;100.00
53758;BME280;39674;59.860;30.672;2023-03-15T07:46:29;99083.91;;;4.34;100.00
53758;BME280;39674;59.860;30.672;2023-03-15T07:49:10;99081.22;;;4.36;100.00
53758;BME280;39674;59.860;30.672;2023-03-15T07:51:41;99077.84;;;4.33;100.00
53758;BME280;39674;59.860;30.672;2023-03-15T07:54:09;99089.44;;;4.28;100.00
53758;BME280;39674;59.860;30.672;2023-03-15T07:56:38;99100.59;;;4.31;100.00
53758;BME280;39674;59.860;30.672;2023-03-15T07:59:12;99099.53;;;4.36;100.00
53758;BME280;39674;59.860;30.672;2023-03-15T08:01:43;99088.31;;;4.33;100.00
53758;BME280;39674;59.860;30.672;2023-03-15T08:04:16;99096.47;;;4.27;100.00
53758;BME280;39674;59.860;30.672;2023-03-15T08:06:45;99083.06;;;4.33;100.00
53758;BME280;39674;59.860;30.672;2023-03-15T08:09:14;99054.31;;;4.33;100.00
53758;BME280;39674;59.860;30.672;2023-03-15T08:11:50;99059.47;;;4.35;100.00
53758;BME280;39674;59.860;30.672;2023-03-15T08:14:23;99076.00;;;4.36;100.00
53758;BME280;39674;59.860;30.672;2023-03-15T08:16:55;99080.06;;;4.41;100.00
53758;BME280;39674;59.860;30.672;2023-03-15T08:19:25;99090.34;;;4.44;100.00
53758;BME280;39674;59.860;30.672;2023-03-15T08:21:53;99084.44;;;4.41;100.00
53758;BME280;39674;59.860;30.672;2023-03-15T08:24:22;99079.13;;;4.42;100.00
53758;BME280;39674;59.860;30.672;2023-03-15T08:27:01;99085.97;;;4.45;100.00
53758;BME280;39674;59.860;30.672;2023-03-15T08:29:30;99090.34;;;4.44;100.00
53758;BME280;39674;59.860;30.672;2023-03-15T08:32:02;99095.34;;;4.49;100.00
53758;BME280;39674;59.860;30.672;2023-03-15T08:34:33;99117.19;;;4.48;100.00
53758;BME280;39674;59.860;30.672;2023-03-15T08:37:13;99116.50;;;4.44;100.00
53758;BME280;39674;59.860;30.672;2023-03-15T08:39:54;99119.03;;;4.46;100.00
53758;BME280;39674;59.860;30.672;2023-03-15T08:42:48;99123.47;;;4.44;100.00
53758;BME280;39674;59.860;30.672;2023-03-15T08:45:41;99131.50;;;4.41;100.00
53758;BME280;39674;59.860;30.672;2023-03-15T08:48:11;99134.94;;;4.41;100.00
53758;BME280;39674;59.860;30.672;2023-03-15T08:50:40;99136.88;;;4.38;100.00
53758;BME280;39674;59.860;30.672;2023-03-15T08:53:14;99149.94;;;4.38;100.00
53758;BME280;39674;59.860;30.672;2023-03-15T08:55:45;99160.34;;;4.39;100.00
53758;BME280;39674;59.860;30.672;2023-03-15T08:58:15;99166.25;;;4.43;100.00
53758;BME280;39674;59.860;30.672;2023-03-15T09:00:44;99171.63;;;4.40;100.00
53758;BME280;39674;59.860;30.672;2023-03-15T09:03:14;99181.09;;;4.42;100.00
53758;BME280;39674;59.860;30.672;2023-03-15T09:05:43;99189.16;;;4.38;100.00
53758;BME280;39674;59.860;30.672;2023-03-15T09:08:11;99185.63;;;4.39;100.00
53758;BME280;39674;59.860;30.672;2023-03-15T09:10:40;99192.72;;;4.37;100.00
53758;BME280;39674;59.860;30.672;2023-03-15T09:13:08;99192.84;;;4.33;100.00
53758;BME280;39674;59.860;30.672;2023-03-15T09:15:40;99199.78;;;4.34;100.00
53758;BME280;39674;59.860;30.672;2023-03-15T09:18:10;99202.53;;;4.31;100.00
53758;BME280;39674;59.860;30.672;2023-03-15T09:20:43;99256.59;;;4.31;100.00
53758;BME280;39674;59.860;30.672;2023-03-15T09:23:11;99270.28;;;3.99;100.00
53758;BME280;39674;59.860;30.672;2023-03-15T09:25:42;99296.00;;;3.71;100.00
53758;BME280;39674;59.860;30.672;2023-03-15T09:28:11;99295.47;;;3.43;100.00
53758;BME280;39674;59.860;30.672;2023-03-15T09:30:41;99309.31;;;3.26;100.00
53758;BME280;39674;59.860;30.672;2023-03-15T09:33:14;99321.50;;;3.05;100.00
53758;BME280;39674;59.860;30.672;2023-03-15T09:35:48;99319.84;;;2.82;100.00
53758;BME280;39674;59.860;30.672;2023-03-15T09:38:22;99322.22;;;2.67;100.00
53758;BME280;39674;59.860;30.672;2023-03-15T09:40:55;99319.41;;;2.50;100.00
53758;BME280;39674;59.860;30.672;2023-03-15T09:43:52;99345.19;;;2.35;100.00
53758;BME280;39674;59.860;30.672;2023-03-15T09:46:28;99355.31;;;2.21;100.00
53758;BME280;39674;59.860;30.672;2023-03-15T09:49:02;99366.53;;;1.99;100.00
53758;BME280;39674;59.860;30.672;2023-03-15T09:51:35;99363.59;;;1.85;100.00
53758;BME280;39674;59.860;30.672;2023-03-15T09:54:10;99376.63;;;1.85;100.00
53758;BME280;39674;59.860;30.672;2023-03-15T09:56:41;99403.78;;;1.77;100.00
53758;BME280;39674;59.860;30.672;2023-03-15T09:59:13;99425.06;;;1.65;100.00
53758;BME280;39674;59.860;30.672;2023-03-15T10:01:51;99422.81;;;1.54;100.00
53758;BME280;39674;59.860;30.672;2023-03-15T10:04:27;99422.81;;;1.54;100.00
53758;BME280;39674;59.860;30.672;2023-03-15T10:07:05;99423.31;;;1.40;100.00
53758;BME280;39674;59.860;30.672;2023-03-15T10:09:39;99454.91;;;1.55;100.00
53758;BME280;39674;59.860;30.672;2023-03-15T10:12:10;99452.25;;;1.56;100.00
53758;BME280;39674;59.860;30.672;2023-03-15T10:14:53;99463.84;;;1.48;100.00
53758;BME280;39674;59.860;30.672;2023-03-15T10:17:27;99468.00;;;1.53;100.00
53758;BME280;39674;59.860;30.672;2023-03-15T10:20:02;99473.44;;;1.46;100.00
53758;BME280;39674;59.860;30.672;2023-03-15T10:22:42;99484.94;;;1.38;100.00
53758;BME280;39674;59.860;30.672;2023-03-15T10:25:15;99484.94;;;1.38;100.00
53758;BME280;39674;59.860;30.672;2023-03-15T10:27:52;99482.63;;;1.31;100.00
53758;BME280;39674;59.860;30.672;2023-03-15T10:30:25;99492.06;;;1.33;100.00
53758;BME280;39674;59.860;30.672;2023-03-15T10:32:54;99474.75;;;1.32;100.00
53758;BME280;39674;59.860;30.672;2023-03-15T10:35:26;99492.19;;;1.30;100.00
53758;BME280;39674;59.860;30.672;2023-03-15T10:37:56;99515.81;;;1.22;100.00
53758;BME280;39674;59.860;30.672;2023-03-15T10:40:38;99517.63;;;1.20;100.00
53758;BME280;39674;59.860;30.672;2023-03-15T10:43:11;99513.22;;;1.22;100.00
53758;BME280;39674;59.860;30.672;2023-03-15T10:45:43;99514.97;;;1.22;100.00
53758;BME280;39674;59.860;30.672;2023-03-15T10:48:13;99515.81;;;1.22;100.00
53758;BME280;39674;59.860;30.672;2023-03-15T10:50:42;99515.94;;;1.19;100.00
53758;BME280;39674;59.860;30.672;2023-03-15T10:53:15;99511.63;;;1.18;100.00
53758;BME280;39674;59.860;30.672;2023-03-15T10:55:47;99511.69;;;1.17;100.00
53758;BME280;39674;59.860;30.672;2023-03-15T10:58:23;99521.22;;;1.16;100.00
53758;BME280;39674;59.860;30.672;2023-03-15T11:00:57;99534.09;;;1.21;100.00
53758;BME280;39674;59.860;30.672;2023-03-15T11:03:35;99558.31;;;1.23;100.00
53758;BME280;39674;59.860;30.672;2023-03-15T11:06:19;99574.00;;;1.20;100.00
53758;BME280;39674;59.860;30.672;2023-03-15T11:08:55;99580.06;;;1.20;100.00
53758;BME280;39674;59.860;30.672;2023-03-15T11:11:55;99598.09;;;1.25;100.00
53758;BME280;39674;59.860;30.672;2023-03-15T11:14:31;99610.41;;;1.20;100.00
53758;BME280;39674;59.860;30.672;2023-03-15T11:17:00;99601.63;;;1.24;100.00
53758;BME280;39674;59.860;30.672;2023-03-15T11:19:30;99617.31;;;1.21;100.00
53758;BME280;39674;59.860;30.672;2023-03-15T11:22:07;99630.41;;;1.18;100.00
53758;BME280;39674;59.860;30.672;2023-03-15T11:24:48;99639.91;;;1.19;100.00
53758;BME280;39674;59.860;30.672;2023-03-15T11:27:28;99650.44;;;1.16;100.00
53758;BME280;39674;59.860;30.672;2023-03-15T11:29:59;99649.72;;;1.10;100.00
53758;BME280;39674;59.860;30.672;2023-03-15T11:32:38;99654.81;;;1.14;100.00
53758;BME280;39674;59.860;30.672;2023-03-15T11:35:09;99664.31;;;1.15;100.00
53758;BME280;39674;59.860;30.672;2023-03-15T11:37:41;99673.91;;;1.12;100.00
53758;BME280;39674;59.860;30.672;2023-03-15T11:40:17;99678.31;;;1.10;100.00
53758;BME280;39674;59.860;30.672;2023-03-15T11:42:53;99686.03;;;1.14;100.00
53758;BME280;39674;59.860;30.672;2023-03-15T11:45:27;99684.31;;;1.12;100.00
53758;BME280;39674;59.860;30.672;2023-03-15T11:48:18;99683.34;;;1.17;100.00
53758;BME280;39674;59.860;30.672;2023-03-15T11:50:52;99685.22;;;1.11;100.00
53758;BME280;39674;59.860;30.672;2023-03-15T11:53:29;99694.72;;;1.12;100.00
53758;BME280;39674;59.860;30.672;2023-03-15T11:56:17;99689.50;;;1.12;100.00
53758;BME280;39674;59.860;30.672;2023-03-15T12:01:41;99716.34;;;1.15;100.00
53758;BME280;39674;59.860;30.672;2023-03-15T12:06:58;99735.63;;;1.07;100.00
53758;BME280;39674;59.860;30.672;2023-03-15T12:09:47;99723.44;;;1.09;100.00
53758;BME280;39674;59.860;30.672;2023-03-15T12:18:05;99732.84;;;1.14;100.00
53758;BME280;39674;59.860;30.672;2023-03-15T12:20:41;99731.09;;;1.14;100.00
53758;BME280;39674;59.860;30.672;2023-03-15T12:23:21;99745.59;;;1.23;100.00
53758;BME280;39674;59.860;30.672;2023-03-15T12:25:51;99743.78;;;1.25;100.00
53758;BME280;39674;59.860;30.672;2023-03-15T12:28:21;99750.53;;;1.32;100.00
53758;BME280;39674;59.860;30.672;2023-03-15T12:31:14;99755.66;;;1.35;100.00
53758;BME280;39674;59.860;30.672;2023-03-15T12:33:46;99778.06;;;1.39;100.00
53758;BME280;39674;59.860;30.672;2023-03-15T12:36:20;99783.38;;;1.36;100.00
53758;BME280;39674;59.860;30.672;2023-03-15T12:38:59;99792.06;;;1.35;100.00
53758;BME280;39674;59.860;30.672;2023-03-15T12:41:35;99795.63;;;1.33;100.00
53758;BME280;39674;59.860;30.672;2023-03-15T12:44:17;99806.03;;;1.33;100.00
53758;BME280;39674;59.860;30.672;2023-03-15T12:46:56;99815.44;;;1.37;100.00
53758;BME280;39674;59.860;30.672;2023-03-15T12:49:28;99821.75;;;1.28;100.00
53758;BME280;39674;59.860;30.672;2023-03-15T12:51:57;99832.00;;;1.34;100.00
53758;BME280;39674;59.860;30.672;2023-03-15T12:54:29;99849.38;;;1.32;100.00
53758;BME280;39674;59.860;30.672;2023-03-15T12:56:58;99856.41;;;1.30;100.00
53758;BME280;39674;59.860;30.672;2023-03-15T12:59:31;99864.16;;;1.32;100.00
53758;BME280;39674;59.860;30.672;2023-03-15T13:02:07;99865.97;;;1.28;100.00
53758;BME280;39674;59.860;30.672;2023-03-15T13:04:48;99874.59;;;1.30;100.00
53758;BME280;39674;59.860;30.672;2023-03-15T13:07:22;99886.69;;;1.33;100.00
53758;BME280;39674;59.860;30.672;2023-03-15T13:10:05;99900.53;;;1.33;100.00
53758;BME280;39674;59.860;30.672;2023-03-15T13:12:40;99905.72;;;1.33;100.00
53758;BME280;39674;59.860;30.672;2023-03-15T13:15:19;99903.13;;;1.33;100.00
53758;BME280;39674;59.860;30.672;2023-03-15T13:17:53;99905.69;;;1.35;100.00
53758;BME280;39674;59.860;30.672;2023-03-15T13:20:35;99911.75;;;1.35;100.00
53758;BME280;39674;59.860;30.672;2023-03-15T13:23:11;99918.75;;;1.33;100.00
53758;BME280;39674;59.860;30.672;2023-03-15T13:25:43;99924.88;;;1.31;100.00
53758;BME280;39674;59.860;30.672;2023-03-15T13:28:15;99940.38;;;1.35;100.00
53758;BME280;39674;59.860;30.672;2023-03-15T13:30:46;99953.28;;;1.38;100.00
53758;BME280;39674;59.860;30.672;2023-03-15T13:33:19;99960.94;;;1.44;100.00
53758;BME280;39674;59.860;30.672;2023-03-15T13:35:52;99955.78;;;1.43;100.00
53758;BME280;39674;59.860;30.672;2023-03-15T13:38:25;99956.66;;;1.43;100.00
53758;BME280;39674;59.860;30.672;2023-03-15T13:40:53;99961.78;;;1.47;100.00
53758;BME280;39674;59.860;30.672;2023-03-15T13:43:24;99964.31;;;1.50;100.00
53758;BME280;39674;59.860;30.672;2023-03-15T13:45:55;99965.19;;;1.49;100.00
53758;BME280;39674;59.860;30.672;2023-03-15T13:48:27;99972.13;;;1.50;100.00
53758;BME280;39674;59.860;30.672;2023-03-15T13:50:55;99967.03;;;1.45;100.00
53758;BME280;39674;59.860;30.672;2023-03-15T13:53:28;99972.28;;;1.43;100.00
53758;BME280;39674;59.860;30.672;2023-03-15T13:55:58;99976.81;;;1.35;100.00
53758;BME280;39674;59.860;30.672;2023-03-15T13:58:26;99988.00;;;1.37;100.00
53758;BME280;39674;59.860;30.672;2023-03-15T14:00:57;99994.09;;;1.38;100.00
53758;BME280;39674;59.860;30.672;2023-03-15T14:03:28;99996.59;;;1.42;100.00
53758;BME280;39674;59.860;30.672;2023-03-15T14:05:56;100005.34;;;1.38;100.00
53758;BME280;39674;59.860;30.672;2023-03-15T14:08:26;100007.94;;;1.40;100.00
53758;BME280;39674;59.860;30.672;2023-03-15T14:11:01;100016.47;;;1.45;100.00
53758;BME280;39674;59.860;30.672;2023-03-15T14:13:31;100019.03;;;1.47;100.00
53758;BME280;39674;59.860;30.672;2023-03-15T14:16:00;100013.03;;;1.43;100.00
53758;BME280;39674;59.860;30.672;2023-03-15T14:18:32;100017.41;;;1.42;100.00
53758;BME280;39674;59.860;30.672;2023-03-15T14:21:00;100017.47;;;1.39;100.00
53758;BME280;39674;59.860;30.672;2023-03-15T14:23:30;100023.53;;;1.40;99.50
53758;BME280;39674;59.860;30.672;2023-03-15T14:26:04;100017.56;;;1.36;100.00
53758;BME280;39674;59.860;30.672;2023-03-15T14:28:37;100028.81;;;1.37;100.00
53758;BME280;39674;59.860;30.672;2023-03-15T14:31:11;100031.34;;;1.38;100.00
53758;BME280;39674;59.860;30.672;2023-03-15T14:33:54;100033.22;;;1.33;100.00
53758;BME280;39674;59.860;30.672;2023-03-15T14:36:29;100039.31;;;1.34;100.00
53758;BME280;39674;59.860;30.672;2023-03-15T14:38:58;100037.44;;;1.39;100.00
53758;BME280;39674;59.860;30.672;2023-03-15T14:41:30;100041.91;;;1.32;100.00
53758;BME280;39674;59.860;30.672;2023-03-15T14:43:58;100046.44;;;1.25;100.00
53758;BME280;39674;59.860;30.672;2023-03-15T14:46:29;100054.28;;;1.24;100.00
53758;BME280;39674;59.860;30.672;2023-03-15T14:49:01;100058.59;;;1.23;100.00
53758;BME280;39674;59.860;30.672;2023-03-15T14:51:30;100062.19;;;1.19;100.00
53758;BME280;39674;59.860;30.672;2023-03-15T14:53:59;100074.44;;;1.14;100.00
53758;BME280;39674;59.860;30.672;2023-03-15T14:56:30;100081.47;;;1.10;100.00
53758;BME280;39674;59.860;30.672;2023-03-15T14:59:08;100079.75;;;1.09;100.00
53758;BME280;39674;59.860;30.672;2023-03-15T15:01:47;100084.13;;;1.07;100.00
53758;BME280;39674;59.860;30.672;2023-03-15T15:04:20;100092.81;;;1.06;100.00
53758;BME280;39674;59.860;30.672;2023-03-15T15:06:48;100086.81;;;1.03;100.00
53758;BME280;39674;59.860;30.672;2023-03-15T15:09:25;100076.50;;;0.98;100.00
53758;BME280;39674;59.860;30.672;2023-03-15T15:11:53;100085.19;;;0.99;100.00
53758;BME280;39674;59.860;30.672;2023-03-15T15:14:23;100083.41;;;1.01;100.00